createdAt,value
2018-01-10T00:01:45.835Z,18.70
2018-01-10T00:04:13.453Z,17.77
2018-01-10T00:06:41.186Z,19.05
2018-01-10T00:09:09.566Z,17.95
2018-01-10T00:11:37.199Z,18.60
2018-01-10T00:14:04.823Z,20.30
2018-01-10T00:16:32.463Z,17.12
2018-01-10T00:19:00.083Z,17.50
2018-01-10T00:21:27.712Z,18.52
2018-01-10T00:23:55.332Z,18.52
2018-01-10T00:26:22.947Z,19.75
2018-01-10T00:28:50.611Z,20.10
2018-01-10T00:31:18.242Z,18.50
2018-01-10T00:33:45.876Z,18.62
2018-01-10T00:36:13.498Z,19.33
2018-01-10T00:38:41.123Z,19.40
2018-01-10T00:41:08.743Z,18.58
2018-01-10T00:43:36.363Z,19.25
2018-01-10T00:46:04.022Z,19.67
2018-01-10T00:48:31.644Z,20.12
2018-01-10T00:50:59.278Z,18.58
2018-01-10T00:53:27.659Z,20.40
2018-01-10T00:55:55.271Z,18.62
2018-01-10T00:58:22.902Z,18.52
2018-01-10T01:00:50.523Z,19.23
2018-01-10T01:03:18.140Z,19.00
2018-01-10T01:05:45.763Z,19.35
2018-01-10T01:08:13.384Z,18.85
2018-01-10T01:10:41.006Z,20.65
2018-01-10T01:13:08.630Z,20.70
2018-01-10T01:15:36.250Z,21.60
2018-01-10T01:18:03.879Z,19.87
2018-01-10T01:20:31.498Z,21.20
2018-01-10T01:22:59.113Z,22.60
2018-01-10T01:25:26.750Z,22.02
2018-01-10T01:27:54.379Z,22.13
2018-01-10T01:30:22.013Z,24.20
2018-01-10T01:32:49.634Z,24.75
2018-01-10T01:35:17.255Z,25.10
2018-01-10T01:37:44.876Z,24.80
2018-01-10T01:40:12.505Z,24.63
2018-01-10T01:42:40.128Z,25.02
2018-01-10T01:45:07.788Z,24.73
2018-01-10T01:47:35.412Z,24.77
2018-01-10T01:50:03.812Z,26.08
2018-01-10T01:52:31.438Z,25.73
2018-01-10T01:54:59.059Z,24.37
2018-01-10T01:57:26.689Z,25.92
2018-01-10T01:59:55.080Z,24.60
2018-01-10T02:02:22.701Z,25.23
2018-01-10T02:04:50.318Z,25.73
2018-01-10T02:07:17.936Z,25.25
2018-01-10T02:09:45.564Z,24.85
2018-01-10T02:12:13.188Z,27.75
2018-01-10T02:14:41.623Z,26.10
2018-01-10T02:17:09.247Z,26.58
2018-01-10T02:19:37.683Z,26.80
2018-01-10T02:22:05.321Z,28.10
2018-01-10T02:24:32.939Z,27.27
2018-01-10T02:27:00.580Z,29.20
2018-01-10T02:29:28.195Z,29.77
2018-01-10T02:31:55.818Z,27.02
2018-01-10T02:34:23.441Z,30.70
2018-01-10T02:36:51.068Z,29.35
2018-01-10T02:39:18.699Z,31.12
2018-01-10T02:41:46.319Z,29.27
2018-01-10T02:44:14.708Z,30.85
2018-01-10T02:46:42.327Z,30.75
2018-01-10T02:49:09.947Z,30.83
2018-01-10T02:51:37.557Z,30.02
2018-01-10T02:54:05.186Z,29.80
2018-01-10T02:56:32.806Z,30.17
2018-01-10T02:59:00.423Z,29.85
2018-01-10T03:01:28.043Z,30.33
2018-01-10T03:03:55.671Z,30.50
2018-01-10T03:06:23.287Z,30.45
2018-01-10T03:08:50.952Z,30.80
2018-01-10T03:11:19.344Z,31.20
2018-01-10T03:13:47.731Z,30.70
2018-01-10T03:16:16.124Z,31.30
2018-01-10T03:18:43.740Z,29.55
2018-01-10T03:21:11.358Z,31.17
2018-01-10T03:23:38.968Z,30.55
2018-01-10T03:26:06.588Z,31.48
2018-01-10T03:28:34.250Z,29.85
2018-01-10T03:31:01.872Z,29.90
2018-01-10T03:33:29.493Z,32.80
2018-01-10T03:35:57.113Z,30.65
2018-01-10T03:38:24.730Z,30.70
2018-01-10T03:40:52.371Z,31.83
2018-01-10T03:43:20.757Z,31.87
2018-01-10T03:45:48.384Z,32.42
2018-01-10T03:48:16.007Z,31.67
2018-01-10T03:50:43.623Z,34.05
2018-01-10T03:53:11.242Z,31.08
2018-01-10T03:55:38.861Z,30.37
2018-01-10T03:58:06.475Z,31.65
2018-01-10T04:00:34.103Z,29.70
2018-01-10T04:03:02.483Z,30.95
2018-01-10T04:08:21.085Z,32.58
2018-01-10T04:10:48.703Z,31.62
2018-01-10T04:13:16.333Z,32.78
2018-01-10T04:15:43.951Z,31.75
2018-01-10T04:21:02.656Z,31.92
2018-01-10T04:23:30.270Z,31.70
2018-01-10T04:25:57.883Z,32.00
2018-01-10T04:28:25.508Z,31.02
2018-01-10T04:30:53.161Z,31.33
2018-01-10T04:33:20.830Z,31.65
2018-01-10T04:35:48.456Z,32.90
2018-01-10T04:38:16.079Z,33.65
2018-01-10T04:40:44.459Z,33.28
2018-01-10T04:43:12.876Z,32.58
2018-01-10T04:45:40.508Z,34.00
2018-01-10T04:48:08.131Z,32.70
2018-01-10T04:50:35.744Z,34.53
2018-01-10T04:53:04.144Z,32.55
2018-01-10T04:55:31.767Z,34.42
2018-01-10T04:57:59.383Z,35.63
2018-01-10T05:00:27.003Z,32.40
2018-01-10T05:02:54.591Z,35.30
2018-01-10T05:05:22.288Z,35.00
2018-01-10T05:07:49.878Z,37.38
2018-01-10T05:10:17.612Z,36.60
2018-01-10T05:12:45.203Z,37.05
2018-01-10T05:15:12.802Z,36.90
2018-01-10T05:17:41.159Z,43.63
2018-01-10T05:20:10.127Z,46.37
2018-01-10T05:22:37.767Z,39.20
2018-01-10T05:25:05.371Z,38.95
2018-01-10T05:27:32.958Z,33.85
2018-01-10T05:30:00.602Z,36.20
2018-01-10T05:32:28.199Z,38.90
2018-01-10T05:34:55.797Z,37.90
2018-01-10T05:37:23.406Z,36.30
2018-01-10T05:39:50.999Z,34.13
2018-01-10T05:42:19.372Z,34.25
2018-01-10T05:44:46.971Z,47.03
2018-01-10T05:47:14.562Z,36.50
2018-01-10T05:49:42.163Z,33.08
2018-01-10T05:52:09.759Z,34.70
2018-01-10T05:54:37.360Z,35.13
2018-01-10T05:57:04.963Z,36.35
2018-01-10T05:59:32.555Z,34.22
2018-01-10T06:02:00.155Z,36.28
2018-01-10T06:04:27.745Z,34.17
2018-01-10T06:06:55.369Z,35.60
2018-01-10T06:09:22.967Z,36.67
2018-01-10T06:11:50.564Z,35.83
2018-01-10T06:14:18.954Z,34.70
2018-01-10T06:16:47.321Z,33.65
2018-01-10T06:19:14.930Z,33.75
2018-01-10T06:21:42.524Z,33.45
2018-01-10T06:24:11.030Z,33.85
2018-01-10T06:26:38.627Z,35.40
2018-01-10T06:29:06.295Z,35.30
2018-01-10T06:31:33.882Z,34.42
2018-01-10T06:34:01.496Z,34.17
2018-01-10T06:36:29.084Z,33.00
2018-01-10T06:38:57.447Z,33.72
2018-01-10T06:41:25.823Z,33.30
2018-01-10T06:43:53.423Z,35.05
2018-01-10T06:46:21.020Z,34.47
2018-01-10T06:48:48.608Z,34.63
2018-01-10T06:51:17.195Z,35.10
2018-01-10T06:53:44.791Z,35.38
2018-01-10T06:56:13.154Z,34.08
2018-01-10T06:58:40.804Z,34.05
2018-01-10T07:01:08.403Z,33.00
2018-01-10T07:03:35.998Z,34.25
2018-01-10T07:06:03.596Z,34.08
2018-01-10T07:08:31.196Z,32.92
2018-01-10T07:10:59.571Z,32.65
2018-01-10T07:13:27.205Z,32.72
2018-01-10T07:15:54.812Z,33.17
2018-01-10T07:18:22.424Z,32.40
2018-01-10T07:20:50.065Z,32.50
2018-01-10T07:23:17.667Z,31.50
2018-01-10T07:25:45.261Z,35.63
2018-01-10T07:28:12.852Z,32.70
2018-01-10T07:30:40.495Z,32.42
2018-01-10T07:33:08.104Z,32.03
2018-01-10T07:35:35.705Z,30.05
2018-01-10T07:38:03.311Z,32.10
2018-01-10T07:40:30.926Z,30.80
2018-01-10T07:42:58.547Z,33.47
2018-01-10T07:45:26.152Z,31.83
2018-01-10T07:47:53.787Z,31.52
2018-01-10T07:50:21.382Z,30.58
2018-01-10T07:52:48.981Z,30.37
2018-01-10T07:55:17.339Z,31.85
2018-01-10T07:57:44.936Z,29.35
2018-01-10T08:00:13.299Z,30.15
2018-01-10T08:02:40.895Z,30.77
2018-01-10T08:05:09.251Z,28.30
2018-01-10T08:07:36.854Z,29.30
2018-01-10T08:10:04.462Z,36.92
2018-01-10T08:12:32.059Z,32.63
2018-01-10T08:14:59.664Z,29.90
2018-01-10T08:17:27.267Z,29.73
2018-01-10T08:19:54.865Z,32.67
2018-01-10T08:22:22.467Z,32.03
2018-01-10T08:24:50.065Z,28.90
2018-01-10T08:27:17.665Z,33.85
2018-01-10T08:29:46.016Z,32.53
2018-01-10T08:32:13.611Z,32.78
2018-01-10T08:34:41.973Z,32.85
2018-01-10T08:37:09.574Z,30.25
2018-01-10T08:39:37.176Z,31.25
2018-01-10T08:42:04.778Z,33.95
2018-01-10T08:44:33.135Z,32.05
2018-01-10T08:47:00.729Z,32.63
2018-01-10T08:49:28.360Z,31.92
2018-01-10T08:51:56.010Z,31.00
2018-01-10T08:54:23.603Z,33.13
2018-01-10T08:56:51.199Z,32.63
2018-01-10T08:59:18.787Z,32.25
2018-01-10T09:01:46.381Z,31.62
2018-01-10T09:04:13.966Z,30.88
2018-01-10T09:06:41.561Z,36.40
2018-01-10T09:09:09.168Z,37.95
2018-01-10T09:11:36.762Z,37.53
2018-01-10T09:14:04.352Z,32.13
2018-01-10T09:16:32.710Z,31.05
2018-01-10T09:19:00.311Z,31.55
2018-01-10T09:21:27.907Z,31.15
2018-01-10T09:23:55.501Z,30.73
2018-01-10T09:26:23.090Z,32.17
2018-01-10T09:28:51.442Z,32.28
2018-01-10T09:31:19.066Z,33.20
2018-01-10T09:33:46.649Z,31.55
2018-01-10T09:36:14.275Z,34.60
2018-01-10T09:38:41.865Z,33.92
2018-01-10T09:41:09.458Z,34.08
2018-01-10T09:43:37.047Z,31.62
2018-01-10T09:46:05.641Z,33.28
2018-01-10T09:48:34.016Z,32.28
2018-01-10T09:51:02.605Z,35.05
2018-01-10T09:53:30.248Z,32.95
2018-01-10T09:55:57.865Z,32.88
2018-01-10T09:58:25.551Z,31.33
2018-01-10T10:00:53.162Z,32.22
2018-01-10T10:03:22.808Z,31.33
2018-01-10T10:05:50.419Z,31.98
2018-01-10T10:08:18.049Z,32.55
2018-01-10T10:10:45.674Z,34.50
2018-01-10T10:13:13.297Z,30.30
2018-01-10T10:15:40.916Z,29.83
2018-01-10T10:18:09.295Z,31.73
2018-01-10T10:20:37.695Z,30.48
2018-01-10T10:23:05.329Z,31.52
2018-01-10T10:25:32.923Z,31.10
2018-01-10T10:28:00.605Z,32.63
2018-01-10T10:30:28.252Z,31.00
2018-01-10T10:32:55.900Z,32.95
2018-01-10T10:35:24.299Z,31.60
2018-01-10T10:37:52.680Z,32.58
2018-01-10T10:40:20.311Z,29.48
2018-01-10T10:42:48.930Z,29.83
2018-01-10T10:45:17.315Z,30.70
2018-01-10T10:47:44.910Z,29.10
2018-01-10T10:50:12.507Z,30.45
2018-01-10T10:52:40.093Z,31.10
2018-01-10T10:55:07.683Z,29.20
2018-01-10T10:57:36.040Z,30.08
2018-01-10T11:00:03.678Z,30.15
2018-01-10T11:02:31.279Z,29.92
2018-01-10T11:04:59.634Z,32.03
2018-01-10T11:07:27.274Z,35.28
2018-01-10T11:09:54.868Z,31.42
2018-01-10T11:12:22.459Z,34.72
2018-01-10T11:14:50.810Z,33.38
2018-01-10T11:17:18.403Z,33.17
2018-01-10T11:19:46.761Z,31.73
2018-01-10T11:22:14.356Z,31.17
2018-01-10T11:24:41.950Z,28.70
2018-01-10T11:27:09.560Z,32.25
2018-01-10T11:29:37.159Z,30.17
2018-01-10T11:32:05.517Z,30.55
2018-01-10T11:34:33.109Z,34.03
2018-01-10T11:37:00.702Z,31.83
2018-01-10T11:39:28.300Z,32.72
2018-01-10T11:41:55.999Z,34.92
2018-01-10T11:44:24.357Z,33.42
2018-01-10T11:46:51.975Z,33.53
2018-01-10T11:49:20.508Z,31.15
2018-01-10T11:51:48.111Z,31.27
2018-01-10T11:54:16.666Z,32.60
2018-01-10T11:56:44.290Z,29.75
2018-01-10T11:59:11.891Z,28.83
2018-01-10T12:01:39.493Z,30.48
2018-01-10T12:04:07.127Z,30.05
2018-01-10T12:06:34.720Z,30.15
2018-01-10T12:09:02.316Z,31.20
2018-01-10T12:11:29.943Z,28.65
2018-01-10T12:13:57.530Z,30.05
2018-01-10T12:16:25.149Z,29.42
2018-01-10T12:18:52.753Z,29.15
2018-01-10T12:21:20.340Z,28.65
2018-01-10T12:23:47.934Z,29.45
2018-01-10T12:26:16.080Z,26.20
2018-01-10T12:28:43.676Z,30.12
2018-01-10T12:31:11.272Z,27.13
2018-01-10T12:33:38.867Z,26.42
2018-01-10T12:36:06.481Z,27.42
2018-01-10T12:38:34.071Z,28.00
2018-01-10T12:41:01.669Z,26.55
2018-01-10T12:43:29.261Z,27.62
2018-01-10T12:45:56.855Z,28.62
2018-01-10T12:48:25.222Z,27.90
2018-01-10T12:50:52.814Z,28.73
2018-01-10T12:53:21.172Z,26.12
2018-01-10T12:55:48.770Z,26.95
2018-01-10T12:58:16.365Z,26.08
2018-01-10T13:00:43.959Z,27.70
2018-01-10T13:03:11.594Z,26.80
2018-01-10T13:05:39.196Z,26.45
2018-01-10T13:08:06.787Z,26.73
2018-01-10T13:10:39.950Z,26.50
2018-01-10T13:13:07.538Z,25.70
2018-01-10T13:15:35.895Z,26.48
2018-01-10T13:18:03.487Z,25.77
2018-01-10T13:20:31.074Z,24.63
2018-01-10T13:22:58.663Z,25.83
2018-01-10T13:25:26.296Z,25.92
2018-01-10T13:27:53.904Z,26.77
2018-01-10T13:30:21.550Z,25.80
2018-01-10T13:32:49.142Z,26.70
2018-01-10T13:35:16.730Z,26.55
2018-01-10T13:37:44.365Z,25.65
2018-01-10T13:40:11.971Z,23.92
2018-01-10T13:42:40.362Z,24.42
2018-01-10T13:45:07.967Z,26.08
2018-01-10T13:47:35.608Z,25.50
2018-01-10T13:50:03.204Z,25.55
2018-01-10T13:52:30.803Z,25.37
2018-01-10T13:54:58.391Z,27.50
2018-01-10T13:57:25.983Z,24.73
2018-01-10T13:59:53.599Z,27.10
2018-01-10T14:02:21.186Z,26.75
2018-01-10T14:04:48.788Z,25.48
2018-01-10T14:07:16.428Z,25.30
2018-01-10T14:09:44.020Z,25.25
2018-01-10T14:12:11.609Z,26.92
2018-01-10T14:14:39.211Z,27.30
2018-01-10T14:17:06.803Z,27.62
2018-01-10T14:19:34.396Z,25.75
2018-01-10T14:22:02.002Z,26.15
2018-01-10T14:24:29.616Z,24.60
2018-01-10T14:26:57.210Z,26.27
2018-01-10T14:29:24.808Z,31.37
2018-01-10T14:31:52.405Z,29.85
2018-01-10T14:34:19.991Z,29.73
2018-01-10T14:36:47.583Z,30.90
2018-01-10T14:39:15.935Z,29.02
2018-01-10T14:41:43.533Z,30.65
2018-01-10T14:44:11.125Z,31.67
2018-01-10T14:46:38.716Z,30.02
2018-01-10T14:49:06.315Z,32.28
2018-01-10T14:51:33.962Z,33.38
2018-01-10T14:54:01.568Z,29.12
2018-01-10T14:56:29.933Z,30.85
2018-01-10T14:58:58.336Z,30.12
2018-01-10T15:01:25.923Z,28.62
2018-01-10T15:03:53.516Z,25.80
2018-01-10T15:06:21.174Z,25.58
2018-01-10T15:08:48.762Z,26.50
2018-01-10T15:11:16.344Z,27.30
2018-01-10T15:13:44.704Z,27.85
2018-01-10T15:16:13.231Z,25.83
2018-01-10T15:18:40.827Z,26.10
2018-01-10T15:21:08.446Z,26.40
2018-01-10T15:23:36.039Z,24.77
2018-01-10T15:26:03.651Z,24.37
2018-01-10T15:28:31.327Z,23.75
2018-01-10T15:30:58.949Z,24.08
2018-01-10T15:33:26.589Z,24.37
2018-01-10T15:35:54.189Z,24.00
2018-01-10T15:38:21.852Z,21.98
2018-01-10T15:40:49.455Z,22.85
2018-01-10T15:43:17.118Z,23.62
2018-01-10T15:45:44.716Z,24.45
2018-01-10T15:48:13.067Z,23.85
2018-01-10T15:50:40.671Z,25.92
2018-01-10T15:53:08.276Z,24.73
2018-01-10T15:55:35.859Z,26.20
2018-01-10T15:58:03.954Z,29.40
2018-01-10T16:00:32.443Z,27.65
2018-01-10T16:03:05.530Z,33.63
2018-01-10T16:05:36.650Z,35.15
2018-01-10T16:08:07.489Z,35.58
2018-01-10T16:10:35.445Z,36.50
2018-01-10T16:13:03.114Z,37.47
2018-01-10T16:15:34.198Z,93.70
2018-01-10T16:18:02.555Z,66.15
2018-01-10T16:20:30.155Z,48.03
2018-01-10T16:22:58.574Z,37.53
2018-01-10T16:25:26.289Z,33.53
2018-01-10T16:27:53.900Z,31.08
2018-01-10T16:30:21.496Z,33.08
2018-01-10T16:32:49.095Z,32.15
2018-01-10T16:35:17.462Z,32.78
2018-01-10T16:37:45.051Z,31.55
2018-01-10T16:40:12.639Z,33.97
2018-01-10T16:42:40.230Z,32.08
2018-01-10T16:45:07.827Z,31.48
2018-01-10T16:47:35.421Z,28.95
2018-01-10T16:50:03.043Z,29.17
2018-01-10T16:52:30.644Z,29.02
2018-01-10T16:54:58.241Z,31.70
2018-01-10T16:57:25.836Z,30.83
2018-01-10T16:59:53.438Z,30.15
2018-01-10T17:02:21.071Z,38.40
2018-01-10T17:04:49.655Z,33.33
2018-01-10T17:07:18.244Z,34.08
2018-01-10T17:09:45.830Z,31.65
2018-01-10T17:12:15.424Z,30.33
2018-01-10T17:14:43.811Z,31.52
2018-01-10T17:17:11.448Z,31.23
2018-01-10T17:19:39.035Z,32.22
2018-01-10T17:22:06.651Z,35.05
2018-01-10T17:24:34.251Z,32.33
2018-01-10T17:27:01.887Z,30.80
2018-01-10T17:29:29.485Z,32.88
2018-01-10T17:31:57.091Z,32.90
2018-01-10T17:34:25.458Z,33.40
2018-01-10T17:36:53.048Z,32.95
2018-01-10T17:39:20.644Z,33.42
2018-01-10T17:41:48.251Z,35.10
2018-01-10T17:44:15.849Z,34.92
2018-01-10T17:46:43.446Z,34.75
2018-01-10T17:49:11.051Z,35.55
2018-01-10T17:51:39.411Z,36.45
2018-01-10T17:54:07.019Z,35.83
2018-01-10T17:56:34.615Z,37.22
2018-01-10T17:59:02.223Z,34.60
2018-01-10T18:01:29.819Z,35.60
2018-01-10T18:03:57.424Z,30.85
2018-01-10T18:06:25.034Z,31.12
2018-01-10T18:08:53.395Z,32.00
2018-01-10T18:11:20.993Z,32.17
2018-01-10T18:13:48.600Z,30.77
2018-01-10T18:16:16.196Z,30.50
2018-01-10T18:18:43.837Z,32.00
2018-01-10T18:21:11.441Z,31.40
2018-01-10T18:23:39.820Z,30.33
2018-01-10T18:26:08.249Z,30.67
2018-01-10T18:28:35.835Z,29.77
2018-01-10T18:31:03.439Z,29.35
2018-01-10T18:33:31.792Z,34.08
2018-01-10T18:35:59.413Z,33.40
2018-01-10T18:38:27.064Z,33.53
2018-01-10T18:40:54.656Z,52.47
2018-01-10T18:43:22.264Z,52.83
2018-01-10T18:45:49.868Z,42.35
2018-01-10T18:48:17.465Z,35.72
2018-01-10T18:50:45.094Z,33.30
2018-01-10T18:53:12.692Z,31.83
2018-01-10T18:55:40.278Z,31.90
2018-01-10T18:58:07.891Z,30.17
2018-01-10T19:00:35.488Z,31.83
2018-01-10T19:03:03.090Z,33.08
2018-01-10T19:05:31.459Z,33.58
2018-01-10T19:07:59.085Z,30.65
2018-01-10T19:10:26.682Z,30.80
2018-01-10T19:12:54.282Z,30.10
2018-01-10T19:15:21.884Z,32.15
2018-01-10T19:17:49.483Z,29.60
2018-01-10T19:20:17.077Z,30.75
2018-01-10T19:22:45.450Z,29.25
2018-01-10T19:25:13.817Z,29.00
2018-01-10T19:27:41.452Z,30.30
2018-01-10T19:30:09.043Z,29.40
2018-01-10T19:32:36.632Z,30.35
2018-01-10T19:35:04.993Z,30.40
2018-01-10T19:37:32.588Z,30.60
2018-01-10T19:40:00.184Z,33.67
2018-01-10T19:42:27.785Z,30.35
2018-01-10T19:44:55.374Z,32.00
2018-01-10T19:47:23.741Z,32.80
2018-01-10T19:49:51.486Z,31.42
2018-01-10T19:52:19.076Z,31.92
2018-01-10T19:54:46.670Z,31.20
2018-01-10T19:57:14.261Z,31.10
2018-01-10T19:59:41.848Z,31.42
2018-01-10T20:02:09.443Z,31.00
2018-01-10T20:04:37.036Z,30.45
2018-01-10T20:07:04.628Z,33.15
2018-01-10T20:09:32.224Z,33.08
2018-01-10T20:11:59.824Z,32.72
2018-01-10T20:14:27.415Z,32.85
2018-01-10T20:16:55.003Z,34.10
2018-01-10T20:19:22.590Z,32.55
2018-01-10T20:21:50.189Z,33.80
2018-01-10T20:24:17.783Z,34.15
2018-01-10T20:26:45.389Z,32.30
2018-01-10T20:29:13.763Z,32.85
2018-01-10T20:31:41.355Z,32.60
2018-01-10T20:34:08.995Z,31.98
2018-01-10T20:36:36.591Z,43.53
2018-01-10T20:39:04.239Z,38.80
2018-01-10T20:41:31.827Z,35.22
2018-01-10T20:43:59.411Z,33.08
2018-01-10T20:46:27.016Z,34.30
2018-01-10T20:48:54.611Z,32.03
2018-01-10T20:51:22.215Z,34.60
2018-01-10T20:53:49.810Z,33.47
2018-01-10T20:56:17.457Z,31.52
2018-01-10T20:58:45.088Z,32.92
2018-01-10T21:01:12.687Z,34.17
2018-01-10T21:03:40.277Z,35.85
2018-01-10T21:06:07.875Z,40.08
2018-01-10T21:08:35.468Z,32.03
2018-01-10T21:11:03.059Z,36.60
2018-01-10T21:13:30.652Z,34.75
2018-01-10T21:15:59.013Z,33.42
2018-01-10T21:18:26.718Z,32.25
2018-01-10T21:20:54.312Z,31.25
2018-01-10T21:23:21.915Z,33.35
2018-01-10T21:25:49.503Z,35.25
2018-01-10T21:28:17.930Z,35.00
2018-01-10T21:30:45.529Z,34.88
2018-01-10T21:33:13.132Z,34.85
2018-01-10T21:35:40.723Z,42.17
2018-01-10T21:38:08.411Z,32.55
2018-01-10T21:40:35.999Z,30.60
2018-01-10T21:43:04.359Z,33.58
2018-01-10T21:45:31.948Z,32.63
2018-01-10T21:48:00.307Z,30.88
2018-01-10T21:50:27.935Z,33.97
2018-01-10T21:52:55.533Z,33.00
2018-01-10T21:55:23.926Z,31.98
2018-01-10T21:57:51.511Z,33.70
2018-01-10T22:00:19.871Z,32.58
2018-01-10T22:02:47.479Z,30.30
2018-01-10T22:05:15.078Z,32.58
2018-01-10T22:07:42.686Z,32.60
2018-01-10T22:10:11.038Z,32.47
2018-01-10T22:12:38.647Z,32.00
2018-01-10T22:15:06.239Z,31.77
2018-01-10T22:17:33.847Z,32.47
2018-01-10T22:20:01.435Z,32.35
2018-01-10T22:22:29.045Z,30.10
2018-01-10T22:24:56.651Z,31.10
2018-01-10T22:27:25.219Z,29.98
2018-01-10T22:29:52.808Z,30.98
2018-01-10T22:32:21.250Z,30.12
2018-01-10T22:34:48.840Z,29.10
2018-01-10T22:37:16.468Z,30.75
2018-01-10T22:39:44.064Z,28.05
2018-01-10T22:42:11.666Z,29.80
2018-01-10T22:44:40.971Z,30.55
2018-01-10T22:47:08.575Z,30.00
2018-01-10T22:49:36.174Z,28.33
2018-01-10T22:52:03.783Z,28.25
2018-01-10T22:54:31.374Z,29.83
2018-01-10T22:56:58.972Z,29.40
2018-01-10T22:59:26.555Z,28.60
2018-01-10T23:01:54.174Z,27.20
2018-01-10T23:04:21.770Z,28.48
2018-01-10T23:06:49.392Z,27.50
2018-01-10T23:09:16.987Z,30.60
2018-01-10T23:11:45.503Z,29.30
2018-01-10T23:14:13.860Z,29.75
2018-01-10T23:16:41.530Z,30.35
2018-01-10T23:19:09.120Z,28.98
2018-01-10T23:21:37.483Z,28.52
2018-01-10T23:24:05.887Z,27.77
2018-01-10T23:26:34.237Z,28.55
2018-01-10T23:29:01.827Z,28.20
2018-01-10T23:31:30.184Z,29.10
2018-01-10T23:33:57.778Z,27.58
2018-01-10T23:36:26.142Z,27.83
2018-01-10T23:38:53.731Z,27.95
2018-01-10T23:41:21.331Z,28.35
2018-01-10T23:43:48.985Z,27.92
2018-01-10T23:46:16.556Z,27.30
2018-01-10T23:48:44.143Z,30.65
2018-01-10T23:51:11.739Z,27.33
2018-01-10T23:53:40.086Z,26.95
2018-01-10T23:56:07.692Z,29.30
2018-01-10T23:58:36.215Z,30.60
